sensor_id;sensor_type;location;lat;lon;timestamp;pressure;altitude;pressure_sealevel;temperature;humidity
33845;BME280;20145;43.118;25.694;2023-02-15T00:01:48;100822.13;;;4.11;73.31
33845;BME280;20145;43.118;25.694;2023-02-15T00:04:15;100827.91;;;4.07;73.20
33845;BME280;20145;43.118;25.694;2023-02-15T00:06:41;100819.84;;;3.96;73.32
33845;BME280;20145;43.118;25.694;2023-02-15T00:09:08;100829.16;;;3.94;73.71
33845;BME280;20145;43.118;25.694;2023-02-15T00:11:34;100816.84;;;3.84;74.13
33845;BME280;20145;43.118;25.694;2023-02-15T00:14:13;100834.25;;;3.94;73.98
33845;BME280;20145;43.118;25.694;2023-02-15T00:16:40;100826.00;;;4.01;73.63
33845;BME280;20145;43.118;25.694;2023-02-15T00:19:06;100832.22;;;4.08;73.16
33845;BME280;20145;43.118;25.694;2023-02-15T00:21:34;100836.56;;;4.10;73.06
33845;BME280;20145;43.118;25.694;2023-02-15T00:24:02;100834.03;;;4.10;72.44
33845;BME280;20145;43.118;25.694;2023-02-15T00:26:28;100838.22;;;4.10;72.75
33845;BME280;20145;43.118;25.694;2023-02-15T00:28:54;100836.28;;;4.02;72.67
33845;BME280;20145;43.118;25.694;2023-02-15T00:31:20;100832.78;;;4.00;73.73
33845;BME280;20145;43.118;25.694;2023-02-15T00:33:46;100835.41;;;4.02;73.31
33845;BME280;20145;43.118;25.694;2023-02-15T00:36:12;100821.94;;;4.06;73.57
33845;BME280;20145;43.118;25.694;2023-02-15T00:38:38;100820.34;;;4.10;72.63
33845;BME280;20145;43.118;25.694;2023-02-15T00:41:06;100822.91;;;4.10;72.96
33845;BME280;20145;43.118;25.694;2023-02-15T00:43:33;100825.53;;;4.11;72.93
33845;BME280;20145;43.118;25.694;2023-02-15T00:46:00;100822.81;;;4.07;72.75
33845;BME280;20145;43.118;25.694;2023-02-15T00:48:26;100822.13;;;4.11;72.89
33845;BME280;20145;43.118;25.694;2023-02-15T00:50:56;100815.84;;;4.02;73.61
33845;BME280;20145;43.118;25.694;2023-02-15T00:53:23;100815.56;;;3.95;74.05
33845;BME280;20145;43.118;25.694;2023-02-15T00:55:49;100824.91;;;3.94;73.49
33845;BME280;20145;43.118;25.694;2023-02-15T00:58:15;100817.19;;;3.93;73.14
33845;BME280;20145;43.118;25.694;2023-02-15T01:00:42;100826.41;;;3.89;74.24
33845;BME280;20145;43.118;25.694;2023-02-15T01:03:08;100815.22;;;3.86;74.09
33845;BME280;20145;43.118;25.694;2023-02-15T01:05:34;100819.44;;;3.85;74.20
33845;BME280;20145;43.118;25.694;2023-02-15T01:08:00;100811.63;;;3.80;73.55
33845;BME280;20145;43.118;25.694;2023-02-15T01:10:27;100830.34;;;3.81;74.34
33845;BME280;20145;43.118;25.694;2023-02-15T01:12:53;100816.63;;;3.77;73.94
33845;BME280;20145;43.118;25.694;2023-02-15T01:15:19;100816.63;;;3.77;74.50
33845;BME280;20145;43.118;25.694;2023-02-15T01:17:46;100794.84;;;3.65;74.09
33845;BME280;20145;43.118;25.694;2023-02-15T01:20:17;100819.81;;;3.72;75.07
33845;BME280;20145;43.118;25.694;2023-02-15T01:22:43;100820.59;;;3.71;74.23
33845;BME280;20145;43.118;25.694;2023-02-15T01:25:09;100818.13;;;3.72;74.70
33845;BME280;20145;43.118;25.694;2023-02-15T01:27:35;100818.03;;;3.71;74.56
33845;BME280;20145;43.118;25.694;2023-02-15T01:30:00;100814.50;;;3.67;75.18
33845;BME280;20145;43.118;25.694;2023-02-15T01:32:26;100815.34;;;3.66;74.67
33845;BME280;20145;43.118;25.694;2023-02-15T01:34:52;100815.38;;;3.68;75.58
33845;BME280;20145;43.118;25.694;2023-02-15T01:37:18;100808.44;;;3.64;74.59
33845;BME280;20145;43.118;25.694;2023-02-15T01:39:43;100812.19;;;3.73;74.47
33845;BME280;20145;43.118;25.694;2023-02-15T01:42:14;100812.66;;;3.63;74.71
33845;BME280;20145;43.118;25.694;2023-02-15T01:44:52;100818.56;;;3.62;75.14
33845;BME280;20145;43.118;25.694;2023-02-15T01:47:44;100811.53;;;3.56;75.15
33845;BME280;20145;43.118;25.694;2023-02-15T01:50:17;100816.72;;;3.58;75.66
33845;BME280;20145;43.118;25.694;2023-02-15T01:55:55;100818.97;;;3.50;75.09
33845;BME280;20145;43.118;25.694;2023-02-15T01:58:24;100821.44;;;3.49;75.75
33845;BME280;20145;43.118;25.694;2023-02-15T02:00:51;100822.38;;;3.51;75.33
33845;BME280;20145;43.118;25.694;2023-02-15T02:03:18;100823.31;;;3.53;76.26
33845;BME280;20145;43.118;25.694;2023-02-15T02:05:47;100817.66;;;3.39;76.26
33845;BME280;20145;43.118;25.694;2023-02-15T02:08:12;100797.28;;;3.18;76.32
33845;BME280;20145;43.118;25.694;2023-02-15T02:10:38;100816.19;;;3.23;77.23
33845;BME280;20145;43.118;25.694;2023-02-15T02:13:05;100816.75;;;3.16;77.22
33845;BME280;20145;43.118;25.694;2023-02-15T02:21:36;100817.72;;;2.78;78.28
33845;BME280;20145;43.118;25.694;2023-02-15T02:29:30;100820.00;;;2.52;78.88
33845;BME280;20145;43.118;25.694;2023-02-15T02:34:50;100822.63;;;2.34;78.32
33845;BME280;20145;43.118;25.694;2023-02-15T02:40:20;100821.53;;;2.10;79.32
33845;BME280;20145;43.118;25.694;2023-02-15T02:42:56;100837.13;;;1.98;78.92
33845;BME280;20145;43.118;25.694;2023-02-15T02:45:28;100821.97;;;1.82;79.86
33845;BME280;20145;43.118;25.694;2023-02-15T02:48:07;100834.97;;;1.88;79.76
33845;BME280;20145;43.118;25.694;2023-02-15T02:50:33;100837.16;;;1.80;80.19
33845;BME280;20145;43.118;25.694;2023-02-15T02:52:59;100837.75;;;1.74;79.74
33845;BME280;20145;43.118;25.694;2023-02-15T02:58:03;100852.59;;;1.65;80.13
33845;BME280;20145;43.118;25.694;2023-02-15T03:00:36;100837.47;;;1.50;80.71
33845;BME280;20145;43.118;25.694;2023-02-15T03:03:12;100852.94;;;1.55;81.10
33845;BME280;20145;43.118;25.694;2023-02-15T03:05:43;100835.78;;;1.33;81.67
33845;BME280;20145;43.118;25.694;2023-02-15T03:08:12;100863.41;;;1.43;81.50
33845;BME280;20145;43.118;25.694;2023-02-15T03:10:48;100860.81;;;1.42;81.19
33845;BME280;20145;43.118;25.694;2023-02-15T03:13:14;100866.53;;;1.38;81.70
33845;BME280;20145;43.118;25.694;2023-02-15T03:15:41;100861.00;;;1.28;81.13
33845;BME280;20145;43.118;25.694;2023-02-15T03:18:40;100861.44;;;1.20;81.69
33845;BME280;20145;43.118;25.694;2023-02-15T03:21:09;100870.22;;;1.26;81.64
33845;BME280;20145;43.118;25.694;2023-02-15T03:23:50;100870.72;;;1.19;81.87
33845;BME280;20145;43.118;25.694;2023-02-15T03:26:19;100877.53;;;1.20;81.19
33845;BME280;20145;43.118;25.694;2023-02-15T03:28:47;100882.53;;;1.19;81.88
33845;BME280;20145;43.118;25.694;2023-02-15T03:31:17;100883.97;;;1.14;82.14
33845;BME280;20145;43.118;25.694;2023-02-15T03:34:00;100879.25;;;1.03;82.06
33845;BME280;20145;43.118;25.694;2023-02-15T03:37:13;100888.47;;;1.01;81.76
33845;BME280;20145;43.118;25.694;2023-02-15T03:39:24;100893.16;;;0.94;82.21
33845;BME280;20145;43.118;25.694;2023-02-15T03:42:12;100865.94;;;0.75;81.85
33845;BME280;20145;43.118;25.694;2023-02-15T03:47:15;100897.22;;;0.74;83.26
33845;BME280;20145;43.118;25.694;2023-02-15T03:49:54;100896.03;;;0.67;82.74
33845;BME280;20145;43.118;25.694;2023-02-15T03:52:25;100896.09;;;0.69;84.22
33845;BME280;20145;43.118;25.694;2023-02-15T03:54:51;100899.50;;;0.69;83.96
33845;BME280;20145;43.118;25.694;2023-02-15T03:57:21;100902.69;;;0.65;83.53
33845;BME280;20145;43.118;25.694;2023-02-15T04:00:16;100908.75;;;0.67;84.07
33845;BME280;20145;43.118;25.694;2023-02-15T04:03:23;100916.97;;;0.63;83.51
33845;BME280;20145;43.118;25.694;2023-02-15T04:05:52;100916.91;;;0.61;83.51
33845;BME280;20145;43.118;25.694;2023-02-15T04:08:17;100916.56;;;0.55;83.86
33845;BME280;20145;43.118;25.694;2023-02-15T04:10:43;100919.84;;;0.53;83.37
33845;BME280;20145;43.118;25.694;2023-02-15T04:13:30;100924.19;;;0.55;82.67
33845;BME280;20145;43.118;25.694;2023-02-15T04:15:55;100925.78;;;0.53;83.42
33845;BME280;20145;43.118;25.694;2023-02-15T04:18:48;100929.66;;;0.47;83.46
33845;BME280;20145;43.118;25.694;2023-02-15T04:21:32;100914.34;;;0.45;83.96
33845;BME280;20145;43.118;25.694;2023-02-15T04:24:16;100906.00;;;0.31;83.40
33845;BME280;20145;43.118;25.694;2023-02-15T04:27:01;100917.09;;;0.33;83.69
33845;BME280;20145;43.118;25.694;2023-02-15T04:29:28;100924.72;;;0.33;83.86
33845;BME280;20145;43.118;25.694;2023-02-15T04:31:55;100940.13;;;0.36;82.62
33845;BME280;20145;43.118;25.694;2023-02-15T04:34:21;100944.41;;;0.37;83.90
33845;BME280;20145;43.118;25.694;2023-02-15T04:36:47;100932.66;;;0.39;83.11
33845;BME280;20145;43.118;25.694;2023-02-15T04:39:14;100939.41;;;0.39;83.22
33845;BME280;20145;43.118;25.694;2023-02-15T04:41:40;100938.53;;;0.38;82.94
33845;BME280;20145;43.118;25.694;2023-02-15T04:44:07;100935.66;;;0.32;82.75
33845;BME280;20145;43.118;25.694;2023-02-15T04:46:33;100925.25;;;0.28;83.62
33845;BME280;20145;43.118;25.694;2023-02-15T04:48:58;100929.41;;;0.26;82.98
33845;BME280;20145;43.118;25.694;2023-02-15T04:51:24;100940.41;;;0.26;84.05
33845;BME280;20145;43.118;25.694;2023-02-15T04:53:50;100931.78;;;0.22;83.20
33845;BME280;20145;43.118;25.694;2023-02-15T04:56:18;100943.50;;;0.20;83.33
33845;BME280;20145;43.118;25.694;2023-02-15T04:58:43;100948.25;;;0.14;84.46
33845;BME280;20145;43.118;25.694;2023-02-15T05:01:09;100945.53;;;0.11;84.51
33845;BME280;20145;43.118;25.694;2023-02-15T05:03:36;100952.09;;;0.08;84.17
33845;BME280;20145;43.118;25.694;2023-02-15T05:06:03;100955.59;;;0.10;85.16
33845;BME280;20145;43.118;25.694;2023-02-15T05:08:28;100952.09;;;0.08;85.45
33845;BME280;20145;43.118;25.694;2023-02-15T05:10:54;100964.94;;;0.11;85.03
33845;BME280;20145;43.118;25.694;2023-02-15T05:13:20;100966.28;;;0.04;84.60
33845;BME280;20145;43.118;25.694;2023-02-15T05:15:52;100971.09;;;-0.01;84.69
33845;BME280;20145;43.118;25.694;2023-02-15T05:18:19;100983.88;;;0.01;84.33
33845;BME280;20145;43.118;25.694;2023-02-15T05:20:46;100978.97;;;0.04;85.36
33845;BME280;20145;43.118;25.694;2023-02-15T05:23:12;100978.25;;;0.07;84.71
33845;BME280;20145;43.118;25.694;2023-02-15T05:25:37;100979.06;;;0.06;84.20
33845;BME280;20145;43.118;25.694;2023-02-15T05:28:24;100966.19;;;0.03;84.93
33845;BME280;20145;43.118;25.694;2023-02-15T05:33:23;100959.38;;;0.02;85.48
33845;BME280;20145;43.118;25.694;2023-02-15T05:35:48;100976.00;;;0.11;84.99
33845;BME280;20145;43.118;25.694;2023-02-15T05:38:14;100988.03;;;0.15;85.18
33845;BME280;20145;43.118;25.694;2023-02-15T05:40:39;100987.16;;;0.15;84.55
33845;BME280;20145;43.118;25.694;2023-02-15T05:43:05;100993.44;;;0.21;85.26
33845;BME280;20145;43.118;25.694;2023-02-15T05:45:31;100993.53;;;0.23;84.17
33845;BME280;20145;43.118;25.694;2023-02-15T05:47:56;100989.59;;;0.28;85.02
33845;BME280;20145;43.118;25.694;2023-02-15T05:50:24;100993.25;;;0.33;85.35
33845;BME280;20145;43.118;25.694;2023-02-15T05:52:49;100999.53;;;0.40;85.21
33845;BME280;20145;43.118;25.694;2023-02-15T05:55:15;100985.00;;;0.37;85.19
33845;BME280;20145;43.118;25.694;2023-02-15T05:57:40;100993.06;;;0.45;86.22
33845;BME280;20145;43.118;25.694;2023-02-15T06:00:06;101011.25;;;0.69;85.15
33845;BME280;20145;43.118;25.694;2023-02-15T06:02:34;101005.72;;;0.76;84.62
33845;BME280;20145;43.118;25.694;2023-02-15T06:05:00;101019.16;;;0.90;85.04
33845;BME280;20145;43.118;25.694;2023-02-15T06:07:25;101005.91;;;0.96;84.71
33845;BME280;20145;43.118;25.694;2023-02-15T06:09:51;101014.16;;;1.08;84.54
33845;BME280;20145;43.118;25.694;2023-02-15T06:12:16;101014.81;;;1.20;84.55
33845;BME280;20145;43.118;25.694;2023-02-15T06:14:42;101007.00;;;1.33;83.90
33845;BME280;20145;43.118;25.694;2023-02-15T06:17:07;101016.84;;;1.44;84.14
33845;BME280;20145;43.118;25.694;2023-02-15T06:19:33;101006.28;;;1.52;84.70
33845;BME280;20145;43.118;25.694;2023-02-15T06:21:58;101003.47;;;1.64;84.78
33845;BME280;20145;43.118;25.694;2023-02-15T06:24:24;101018.75;;;1.82;84.49
33845;BME280;20145;43.118;25.694;2023-02-15T06:26:50;101013.22;;;1.91;84.16
33845;BME280;20145;43.118;25.694;2023-02-15T06:29:15;101019.72;;;2.02;84.29
33845;BME280;20145;43.118;25.694;2023-02-15T06:31:41;101022.16;;;2.17;83.88
33845;BME280;20145;43.118;25.694;2023-02-15T06:34:06;101020.16;;;2.29;83.84
33845;BME280;20145;43.118;25.694;2023-02-15T06:36:32;101014.88;;;2.42;83.88
33845;BME280;20145;43.118;25.694;2023-02-15T06:38:57;101021.41;;;2.55;82.17
33845;BME280;20145;43.118;25.694;2023-02-15T06:41:23;101024.50;;;2.67;82.98
33845;BME280;20145;43.118;25.694;2023-02-15T06:43:49;101023.28;;;2.77;82.09
33845;BME280;20145;43.118;25.694;2023-02-15T06:46:15;101019.66;;;2.92;82.25
33845;BME280;20145;43.118;25.694;2023-02-15T06:48:41;101018.50;;;3.04;81.92
33845;BME280;20145;43.118;25.694;2023-02-15T06:51:07;101018.19;;;3.16;81.48
33845;BME280;20145;43.118;25.694;2023-02-15T06:53:32;101009.97;;;3.43;79.98
33845;BME280;20145;43.118;25.694;2023-02-15T06:56:03;101017.22;;;3.53;79.06
33845;BME280;20145;43.118;25.694;2023-02-15T06:58:38;101019.41;;;3.65;78.38
33845;BME280;20145;43.118;25.694;2023-02-15T07:01:04;101012.41;;;3.80;77.87
33845;BME280;20145;43.118;25.694;2023-02-15T07:03:30;101009.47;;;3.92;77.77
33845;BME280;20145;43.118;25.694;2023-02-15T07:05:57;101018.66;;;4.08;76.77
33845;BME280;20145;43.118;25.694;2023-02-15T07:08:24;101007.06;;;4.16;75.61
33845;BME280;20145;43.118;25.694;2023-02-15T07:10:50;101006.59;;;4.26;75.09
33845;BME280;20145;43.118;25.694;2023-02-15T07:13:16;101003.47;;;4.33;75.69
33845;BME280;20145;43.118;25.694;2023-02-15T07:15:42;101001.22;;;4.41;74.22
33845;BME280;20145;43.118;25.694;2023-02-15T07:18:08;101006.59;;;4.48;74.87
33845;BME280;20145;43.118;25.694;2023-02-15T07:20:34;101015.84;;;4.67;73.84
33845;BME280;20145;43.118;25.694;2023-02-15T07:23:01;101005.19;;;4.79;73.21
33845;BME280;20145;43.118;25.694;2023-02-15T07:25:27;100972.75;;;4.77;72.78
33845;BME280;20145;43.118;25.694;2023-02-15T07:28:00;100984.09;;;4.85;72.61
33845;BME280;20145;43.118;25.694;2023-02-15T07:30:26;101009.38;;;5.00;72.03
33845;BME280;20145;43.118;25.694;2023-02-15T07:32:56;101003.78;;;5.10;72.17
33845;BME280;20145;43.118;25.694;2023-02-15T07:35:51;101000.81;;;5.23;71.83
33845;BME280;20145;43.118;25.694;2023-02-15T07:38:17;101010.69;;;5.36;71.69
33845;BME280;20145;43.118;25.694;2023-02-15T07:40:43;101004.13;;;5.45;70.57
33845;BME280;20145;43.118;25.694;2023-02-15T07:43:12;100998.19;;;5.46;69.82
33845;BME280;20145;43.118;25.694;2023-02-15T07:45:38;100995.13;;;5.56;70.72
33845;BME280;20145;43.118;25.694;2023-02-15T07:48:04;100995.03;;;5.53;70.70
33845;BME280;20145;43.118;25.694;2023-02-15T07:50:30;100994.06;;;5.49;70.82
33845;BME280;20145;43.118;25.694;2023-02-15T07:52:56;100994.50;;;5.37;70.11
33845;BME280;20145;43.118;25.694;2023-02-15T07:55:22;101000.13;;;5.27;71.42
33845;BME280;20145;43.118;25.694;2023-02-15T07:57:49;100985.06;;;5.35;70.71
33845;BME280;20145;43.118;25.694;2023-02-15T08:00:16;100997.41;;;5.47;70.20
33845;BME280;20145;43.118;25.694;2023-02-15T08:02:48;100993.25;;;5.50;70.72
33845;BME280;20145;43.118;25.694;2023-02-15T08:05:13;100997.31;;;5.45;70.72
33845;BME280;20145;43.118;25.694;2023-02-15T08:07:39;100981.84;;;5.41;69.68
33845;BME280;20145;43.118;25.694;2023-02-15T08:10:05;100982.22;;;5.53;70.64
33845;BME280;20145;43.118;25.694;2023-02-15T08:12:31;100998.22;;;5.71;70.54
33845;BME280;20145;43.118;25.694;2023-02-15T08:14:56;100991.31;;;5.69;69.49
33845;BME280;20145;43.118;25.694;2023-02-15T08:17:22;100991.97;;;5.63;70.56
33845;BME280;20145;43.118;25.694;2023-02-15T08:19:48;100990.00;;;5.81;69.97
33845;BME280;20145;43.118;25.694;2023-02-15T08:22:14;100982.47;;;5.86;70.18
33845;BME280;20145;43.118;25.694;2023-02-15T08:24:40;100996.81;;;5.81;69.75
33845;BME280;20145;43.118;25.694;2023-02-15T08:27:08;100987.34;;;5.78;69.99
33845;BME280;20145;43.118;25.694;2023-02-15T08:29:35;100979.75;;;5.81;69.83
33845;BME280;20145;43.118;25.694;2023-02-15T08:32:07;100990.72;;;6.01;69.25
33845;BME280;20145;43.118;25.694;2023-02-15T08:34:36;100972.66;;;5.98;69.70
33845;BME280;20145;43.118;25.694;2023-02-15T08:37:03;100986.78;;;6.13;69.25
33845;BME280;20145;43.118;25.694;2023-02-15T08:39:29;100975.97;;;6.23;69.00
33845;BME280;20145;43.118;25.694;2023-02-15T08:41:55;100974.28;;;6.23;69.51
33845;BME280;20145;43.118;25.694;2023-02-15T08:44:21;100984.78;;;6.31;68.34
33845;BME280;20145;43.118;25.694;2023-02-15T08:46:48;100990.47;;;6.50;68.26
33845;BME280;20145;43.118;25.694;2023-02-15T08:49:19;100992.94;;;6.46;69.11
33845;BME280;20145;43.118;25.694;2023-02-15T08:51:45;101000.66;;;6.46;68.32
33845;BME280;20145;43.118;25.694;2023-02-15T08:54:17;100995.44;;;6.43;68.31
33845;BME280;20145;43.118;25.694;2023-02-15T08:56:44;100998.75;;;6.41;69.09
33845;BME280;20145;43.118;25.694;2023-02-15T08:59:18;100996.13;;;6.39;68.35
33845;BME280;20145;43.118;25.694;2023-02-15T09:01:45;100983.91;;;6.31;69.06
33845;BME280;20145;43.118;25.694;2023-02-15T09:04:11;100995.38;;;6.42;68.91
33845;BME280;20145;43.118;25.694;2023-02-15T09:06:39;100991.25;;;6.47;69.37
33845;BME280;20145;43.118;25.694;2023-02-15T09:09:06;100982.69;;;6.46;68.89
33845;BME280;20145;43.118;25.694;2023-02-15T09:11:39;100988.97;;;6.56;67.33
33845;BME280;20145;43.118;25.694;2023-02-15T09:14:08;100981.09;;;6.50;66.72
33845;BME280;20145;43.118;25.694;2023-02-15T09:16:35;100981.59;;;6.67;67.07
33845;BME280;20145;43.118;25.694;2023-02-15T09:19:02;100982.84;;;6.81;66.54
33845;BME280;20145;43.118;25.694;2023-02-15T09:21:30;100978.94;;;6.94;66.64
33845;BME280;20145;43.118;25.694;2023-02-15T09:24:05;100982.81;;;7.10;65.96
33845;BME280;20145;43.118;25.694;2023-02-15T09:26:34;100977.28;;;7.26;66.10
33845;BME280;20145;43.118;25.694;2023-02-15T09:29:04;100975.66;;;7.31;64.42
33845;BME280;20145;43.118;25.694;2023-02-15T09:31:32;100963.16;;;7.44;64.83
33845;BME280;20145;43.118;25.694;2023-02-15T09:33:59;100981.69;;;7.65;63.07
33845;BME280;20145;43.118;25.694;2023-02-15T09:36:34;100977.44;;;7.66;62.07
33845;BME280;20145;43.118;25.694;2023-02-15T09:47:31;100974.22;;;7.41;62.61
33845;BME280;20145;43.118;25.694;2023-02-15T10:15:03;100941.56;;;7.04;64.42
33845;BME280;20145;43.118;25.694;2023-02-15T10:17:58;100926.22;;;7.05;63.35
33845;BME280;20145;43.118;25.694;2023-02-15T10:26:18;100923.50;;;7.67;62.62
33845;BME280;20145;43.118;25.694;2023-02-15T10:28:57;100927.91;;;7.73;61.68
33845;BME280;20145;43.118;25.694;2023-02-15T10:34:22;100928.56;;;7.99;60.98
33845;BME280;20145;43.118;25.694;2023-02-15T10:37:01;100932.19;;;8.09;61.27
33845;BME280;20145;43.118;25.694;2023-02-15T11:00:52;100913.22;;;8.40;60.74
33845;BME280;20145;43.118;25.694;2023-02-15T11:06:22;100905.09;;;8.62;59.98
33845;BME280;20145;43.118;25.694;2023-02-15T11:08:57;100914.59;;;8.65;59.91
33845;BME280;20145;43.118;25.694;2023-02-15T11:11:29;100899.47;;;8.39;61.12
33845;BME280;20145;43.118;25.694;2023-02-15T11:14:00;100902.00;;;8.38;59.79
33845;BME280;20145;43.118;25.694;2023-02-15T11:16:35;100895.69;;;8.23;60.84
33845;BME280;20145;43.118;25.694;2023-02-15T11:19:21;100891.41;;;8.24;60.18
33845;BME280;20145;43.118;25.694;2023-02-15T11:21:50;100874.44;;;8.32;60.00
33845;BME280;20145;43.118;25.694;2023-02-15T11:24:20;100872.25;;;8.49;59.81
33845;BME280;20145;43.118;25.694;2023-02-15T11:27:02;100874.97;;;8.57;59.95
33845;BME280;20145;43.118;25.694;2023-02-15T11:29:36;100882.88;;;8.66;59.54
33845;BME280;20145;43.118;25.694;2023-02-15T11:32:17;100877.09;;;8.78;58.37
33845;BME280;20145;43.118;25.694;2023-02-15T11:35:17;100873.59;;;8.74;58.90
33845;BME280;20145;43.118;25.694;2023-02-15T11:38:11;100876.88;;;8.67;58.89
33845;BME280;20145;43.118;25.694;2023-02-15T11:41:03;100877.75;;;8.67;58.71
33845;BME280;20145;43.118;25.694;2023-02-15T11:43:43;100869.41;;;8.79;58.70
33845;BME280;20145;43.118;25.694;2023-02-15T11:46:13;100874.16;;;9.05;58.84
33845;BME280;20145;43.118;25.694;2023-02-15T11:48:40;100873.47;;;9.15;59.05
33845;BME280;20145;43.118;25.694;2023-02-15T11:51:22;100862.19;;;9.08;58.97
33845;BME280;20145;43.118;25.694;2023-02-15T11:53:49;100855.47;;;9.16;59.05
33845;BME280;20145;43.118;25.694;2023-02-15T11:56:17;100835.09;;;9.29;58.30
33845;BME280;20145;43.118;25.694;2023-02-15T12:06:48;100848.56;;;9.14;58.60
33845;BME280;20145;43.118;25.694;2023-02-15T12:09:37;100859.09;;;9.26;58.39
33845;BME280;20145;43.118;25.694;2023-02-15T12:14:56;100847.84;;;9.23;58.76
33845;BME280;20145;43.118;25.694;2023-02-15T12:17:31;100839.25;;;9.21;58.55
33845;BME280;20145;43.118;25.694;2023-02-15T12:20:02;100843.63;;;9.28;57.91
33845;BME280;20145;43.118;25.694;2023-02-15T12:22:31;100843.47;;;9.17;57.88
33845;BME280;20145;43.118;25.694;2023-02-15T12:25:04;100832.16;;;9.09;59.24
33845;BME280;20145;43.118;25.694;2023-02-15T12:27:42;100832.06;;;9.03;59.63
33845;BME280;20145;43.118;25.694;2023-02-15T12:30:17;100826.97;;;9.06;59.19
33845;BME280;20145;43.118;25.694;2023-02-15T12:35:28;100827.06;;;9.10;58.45
33845;BME280;20145;43.118;25.694;2023-02-15T12:37:58;100832.28;;;9.16;59.10
33845;BME280;20145;43.118;25.694;2023-02-15T12:40:29;100827.81;;;9.05;58.56
33845;BME280;20145;43.118;25.694;2023-02-15T12:42:55;100821.00;;;9.07;58.77
33845;BME280;20145;43.118;25.694;2023-02-15T12:45:32;100825.53;;;9.22;58.97
33845;BME280;20145;43.118;25.694;2023-02-15T12:50:34;100832.66;;;9.38;56.03
33845;BME280;20145;43.118;25.694;2023-02-15T12:53:20;100819.03;;;9.45;56.58
33845;BME280;20145;43.118;25.694;2023-02-15T12:55:59;100820.06;;;9.58;54.94
33845;BME280;20145;43.118;25.694;2023-02-15T12:58:28;100824.31;;;9.54;55.06
33845;BME280;20145;43.118;25.694;2023-02-15T13:03:27;100811.41;;;9.51;54.76
33845;BME280;20145;43.118;25.694;2023-02-15T13:05:54;100812.94;;;9.40;55.71
33845;BME280;20145;43.118;25.694;2023-02-15T13:11:00;100813.06;;;9.49;56.08
33845;BME280;20145;43.118;25.694;2023-02-15T13:13:30;100813.94;;;9.50;55.02
33845;BME280;20145;43.118;25.694;2023-02-15T13:16:01;100810.50;;;9.49;54.77
33845;BME280;20145;43.118;25.694;2023-02-15T13:18:35;100822.34;;;9.38;55.46
33845;BME280;20145;43.118;25.694;2023-02-15T13:23:35;100819.19;;;9.56;54.49
33845;BME280;20145;43.118;25.694;2023-02-15T13:26:04;100810.75;;;9.65;55.35
33845;BME280;20145;43.118;25.694;2023-02-15T13:28:44;100813.72;;;9.34;55.77
33845;BME280;20145;43.118;25.694;2023-02-15T13:31:17;100811.06;;;9.30;55.61
33845;BME280;20145;43.118;25.694;2023-02-15T13:33:51;100813.44;;;9.18;56.54
33845;BME280;20145;43.118;25.694;2023-02-15T13:36:24;100814.28;;;9.16;56.70
33845;BME280;20145;43.118;25.694;2023-02-15T13:44:21;100806.97;;;9.44;56.16
33845;BME280;20145;43.118;25.694;2023-02-15T13:52:32;100809.16;;;9.20;56.71
33845;BME280;20145;43.118;25.694;2023-02-15T14:12:28;100809.47;;;9.38;55.11
33845;BME280;20145;43.118;25.694;2023-02-15T14:17:55;100818.91;;;9.39;55.69
33845;BME280;20145;43.118;25.694;2023-02-15T14:20:50;100810.19;;;9.29;56.93
33845;BME280;20145;43.118;25.694;2023-02-15T14:26:02;100816.25;;;9.31;56.68
33845;BME280;20145;43.118;25.694;2023-02-15T14:28:43;100822.03;;;9.20;56.67
33845;BME280;20145;43.118;25.694;2023-02-15T14:31:12;100825.50;;;9.20;56.42
33845;BME280;20145;43.118;25.694;2023-02-15T14:33:54;100824.56;;;9.15;57.46
33845;BME280;20145;43.118;25.694;2023-02-15T14:36:20;100817.44;;;9.00;56.61
33845;BME280;20145;43.118;25.694;2023-02-15T14:39:02;100821.66;;;8.97;56.66
33845;BME280;20145;43.118;25.694;2023-02-15T14:41:59;100819.03;;;8.93;56.74
33845;BME280;20145;43.118;25.694;2023-02-15T14:44:45;100817.31;;;8.94;56.09
33845;BME280;20145;43.118;25.694;2023-02-15T14:47:18;100826.91;;;9.01;56.75
33845;BME280;20145;43.118;25.694;2023-02-15T14:49:45;100823.53;;;9.05;55.95
33845;BME280;20145;43.118;25.694;2023-02-15T14:52:12;100830.28;;;8.99;56.95
33845;BME280;20145;43.118;25.694;2023-02-15T15:04:34;100824.94;;;8.88;57.00
33845;BME280;20145;43.118;25.694;2023-02-15T15:07:14;100830.09;;;8.89;56.72
33845;BME280;20145;43.118;25.694;2023-02-15T15:09:47;100819.56;;;8.76;56.79
33845;BME280;20145;43.118;25.694;2023-02-15T15:14:49;100820.16;;;8.61;58.12
33845;BME280;20145;43.118;25.694;2023-02-15T15:22:30;100824.66;;;8.29;59.37
33845;BME280;20145;43.118;25.694;2023-02-15T15:25:01;100821.34;;;8.34;58.79
33845;BME280;20145;43.118;25.694;2023-02-15T15:30:07;100826.03;;;8.13;59.96
33845;BME280;20145;43.118;25.694;2023-02-15T15:32:55;100824.97;;;8.03;60.46
33845;BME280;20145;43.118;25.694;2023-02-15T15:49:37;100831.69;;;7.57;62.96
33845;BME280;20145;43.118;25.694;2023-02-15T15:52:15;100823.53;;;7.38;62.76
33845;BME280;20145;43.118;25.694;2023-02-15T15:54:41;100831.97;;;7.33;64.47
33845;BME280;20145;43.118;25.694;2023-02-15T15:57:16;100825.72;;;7.23;64.13
33845;BME280;20145;43.118;25.694;2023-02-15T15:59:45;100827.28;;;7.17;65.14
33845;BME280;20145;43.118;25.694;2023-02-15T16:02:17;100824.50;;;7.09;64.94
33845;BME280;20145;43.118;25.694;2023-02-15T16:04:44;100834.69;;;7.04;64.91
33845;BME280;20145;43.118;25.694;2023-02-15T16:07:23;100840.28;;;6.89;64.87
33845;BME280;20145;43.118;25.694;2023-02-15T16:10:02;100842.47;;;6.76;65.50
33845;BME280;20145;43.118;25.694;2023-02-15T16:12:36;100843.81;;;6.61;65.58
33845;BME280;20145;43.118;25.694;2023-02-15T16:15:34;100850.38;;;6.52;66.77